sensor_id;sensor_type;location;lat;lon;timestamp;pressure;altitude;pressure_sealevel;temperature;humidity
51083;BME280;37131;42.694;23.350;2023-11-21T00:00:13;95373.94;;;2.52;100.00
51083;BME280;37131;42.694;23.350;2023-11-21T00:02:39;95381.28;;;2.63;100.00
51083;BME280;37131;42.694;23.350;2023-11-21T00:05:10;95377.22;;;2.69;100.00
51083;BME280;37131;42.694;23.350;2023-11-21T00:07:38;95382.88;;;2.65;100.00
51083;BME280;37131;42.694;23.350;2023-11-21T00:10:04;95385.03;;;2.76;100.00
51083;BME280;37131;42.694;23.350;2023-11-21T00:12:34;95355.38;;;2.65;100.00
51083;BME280;37131;42.694;23.350;2023-11-21T00:14:59;95312.97;;;2.30;100.00
51083;BME280;37131;42.694;23.350;2023-11-21T00:17:26;95323.22;;;2.38;100.00
51083;BME280;37131;42.694;23.350;2023-11-21T00:19:52;95372.47;;;2.58;100.00
51083;BME280;37131;42.694;23.350;2023-11-21T00:22:17;95377.59;;;2.58;100.00
51083;BME280;37131;42.694;23.350;2023-11-21T00:24:43;95383.28;;;2.53;100.00
51083;BME280;37131;42.694;23.350;2023-11-21T00:27:09;95382.34;;;2.46;100.00
51083;BME280;37131;42.694;23.350;2023-11-21T00:29:34;95368.94;;;2.59;100.00
51083;BME280;37131;42.694;23.350;2023-11-21T00:31:59;95364.56;;;2.59;100.00
51083;BME280;37131;42.694;23.350;2023-11-21T00:34:25;95359.06;;;2.62;100.00
51083;BME280;37131;42.694;23.350;2023-11-21T00:36:50;95372.94;;;2.61;100.00
51083;BME280;37131;42.694;23.350;2023-11-21T00:39:16;95373.09;;;2.60;100.00
51083;BME280;37131;42.694;23.350;2023-11-21T00:41:41;95368.78;;;2.52;100.00
51083;BME280;37131;42.694;23.350;2023-11-21T00:44:07;95370.28;;;2.46;100.00
51083;BME280;37131;42.694;23.350;2023-11-21T00:46:32;95373.44;;;2.57;100.00
51083;BME280;37131;42.694;23.350;2023-11-21T00:48:57;95336.19;;;2.44;100.00
51083;BME280;37131;42.694;23.350;2023-11-21T00:51:23;95346.69;;;2.35;100.00
51083;BME280;37131;42.694;23.350;2023-11-21T00:53:49;95371.44;;;2.44;100.00
51083;BME280;37131;42.694;23.350;2023-11-21T00:56:15;95364.44;;;2.30;100.00
51083;BME280;37131;42.694;23.350;2023-11-21T00:58:40;95367.25;;;2.43;100.00
51083;BME280;37131;42.694;23.350;2023-11-21T01:01:11;95365.19;;;2.38;100.00
51083;BME280;37131;42.694;23.350;2023-11-21T01:03:37;95362.31;;;2.33;100.00
51083;BME280;37131;42.694;23.350;2023-11-21T01:06:02;95352.53;;;2.28;100.00
51083;BME280;37131;42.694;23.350;2023-11-21T01:08:29;95362.81;;;2.28;100.00
51083;BME280;37131;42.694;23.350;2023-11-21T01:10:56;95352.00;;;2.10;100.00
51083;BME280;37131;42.694;23.350;2023-11-21T01:13:21;95362.13;;;2.12;100.00
51083;BME280;37131;42.694;23.350;2023-11-21T01:15:47;95331.78;;;1.99;100.00
51083;BME280;37131;42.694;23.350;2023-11-21T01:18:12;95353.56;;;2.19;100.00
51083;BME280;37131;42.694;23.350;2023-11-21T01:20:38;95355.34;;;2.10;100.00
51083;BME280;37131;42.694;23.350;2023-11-21T01:23:03;95352.28;;;2.15;100.00
51083;BME280;37131;42.694;23.350;2023-11-21T01:25:28;95365.19;;;2.07;100.00
51083;BME280;37131;42.694;23.350;2023-11-21T01:27:54;95363.38;;;2.16;100.00
51083;BME280;37131;42.694;23.350;2023-11-21T01:30:19;95359.47;;;2.20;100.00
51083;BME280;37131;42.694;23.350;2023-11-21T01:32:45;95357.75;;;2.12;100.00
51083;BME280;37131;42.694;23.350;2023-11-21T01:35:10;95347.47;;;2.12;100.00
51083;BME280;37131;42.694;23.350;2023-11-21T01:37:37;95346.88;;;2.02;100.00
51083;BME280;37131;42.694;23.350;2023-11-21T01:40:03;95366.28;;;2.13;100.00
51083;BME280;37131;42.694;23.350;2023-11-21T01:42:35;95371.47;;;2.04;100.00
51083;BME280;37131;42.694;23.350;2023-11-21T01:45:00;95364.88;;;2.02;100.00
51083;BME280;37131;42.694;23.350;2023-11-21T01:47:31;95369.22;;;2.01;100.00
51083;BME280;37131;42.694;23.350;2023-11-21T01:49:57;95328.03;;;1.78;100.00
51083;BME280;37131;42.694;23.350;2023-11-21T01:52:23;95360.91;;;1.91;100.00
51083;BME280;37131;42.694;23.350;2023-11-21T01:54:50;95351.81;;;1.72;100.00
51083;BME280;37131;42.694;23.350;2023-11-21T01:57:15;95351.81;;;1.80;100.00
51083;BME280;37131;42.694;23.350;2023-11-21T01:59:42;95366.91;;;1.75;100.00
51083;BME280;37131;42.694;23.350;2023-11-21T02:02:08;95364.50;;;1.73;100.00
51083;BME280;37131;42.694;23.350;2023-11-21T02:04:35;95360.66;;;1.78;100.00
51083;BME280;37131;42.694;23.350;2023-11-21T02:07:02;95325.53;;;1.53;100.00
51083;BME280;37131;42.694;23.350;2023-11-21T02:09:30;95356.81;;;1.65;100.00
51083;BME280;37131;42.694;23.350;2023-11-21T02:11:57;95352.50;;;1.66;100.00
51083;BME280;37131;42.694;23.350;2023-11-21T02:14:24;95355.72;;;1.60;100.00
51083;BME280;37131;42.694;23.350;2023-11-21T02:16:52;95357.47;;;1.59;100.00
51083;BME280;37131;42.694;23.350;2023-11-21T02:19:18;95363.56;;;1.66;100.00
51083;BME280;37131;42.694;23.350;2023-11-21T02:21:56;95351.38;;;1.60;100.00
51083;BME280;37131;42.694;23.350;2023-11-21T02:24:24;95357.28;;;1.69;100.00
51083;BME280;37131;42.694;23.350;2023-11-21T02:26:50;95351.03;;;1.71;100.00
51083;BME280;37131;42.694;23.350;2023-11-21T02:29:19;95349.53;;;1.77;100.00
51083;BME280;37131;42.694;23.350;2023-11-21T02:31:48;95352.13;;;1.77;100.00
51083;BME280;37131;42.694;23.350;2023-11-21T02:34:17;95347.28;;;1.82;100.00
51083;BME280;37131;42.694;23.350;2023-11-21T02:36:44;95344.56;;;1.75;100.00
51083;BME280;37131;42.694;23.350;2023-11-21T02:39:13;95348.59;;;1.78;100.00
51083;BME280;37131;42.694;23.350;2023-11-21T02:41:38;95344.13;;;1.64;100.00
51083;BME280;37131;42.694;23.350;2023-11-21T02:44:05;95345.75;;;1.56;100.00
51083;BME280;37131;42.694;23.350;2023-11-21T02:46:31;95340.78;;;1.55;100.00
51083;BME280;37131;42.694;23.350;2023-11-21T02:48:59;95350.09;;;1.64;100.00
51083;BME280;37131;42.694;23.350;2023-11-21T02:51:25;95354.91;;;1.59;100.00
51083;BME280;37131;42.694;23.350;2023-11-21T02:53:50;95345.91;;;1.55;100.00
51083;BME280;37131;42.694;23.350;2023-11-21T02:56:16;95322.69;;;1.40;100.00
51083;BME280;37131;42.694;23.350;2023-11-21T02:58:42;95352.00;;;1.62;100.00
51083;BME280;37131;42.694;23.350;2023-11-21T03:01:09;95343.66;;;1.60;100.00
51083;BME280;37131;42.694;23.350;2023-11-21T03:03:34;95344.47;;;1.61;100.00
51083;BME280;37131;42.694;23.350;2023-11-21T03:06:02;95310.94;;;1.46;100.00
51083;BME280;37131;42.694;23.350;2023-11-21T03:08:28;95340.78;;;1.55;100.00
51083;BME280;37131;42.694;23.350;2023-11-21T03:10:53;95336.63;;;1.54;100.00
51083;BME280;37131;42.694;23.350;2023-11-21T03:13:18;95345.91;;;1.55;100.00
51083;BME280;37131;42.694;23.350;2023-11-21T03:15:44;95348.03;;;1.60;100.00
51083;BME280;37131;42.694;23.350;2023-11-21T03:18:09;95344.28;;;1.70;100.00
51083;BME280;37131;42.694;23.350;2023-11-21T03:20:35;95343.78;;;1.75;100.00
51083;BME280;37131;42.694;23.350;2023-11-21T03:23:01;95352.44;;;1.82;100.00
51083;BME280;37131;42.694;23.350;2023-11-21T03:25:27;95320.56;;;1.52;100.00
51083;BME280;37131;42.694;23.350;2023-11-21T03:27:52;95334.22;;;1.44;100.00
51083;BME280;37131;42.694;23.350;2023-11-21T03:30:18;95353.47;;;1.56;100.00
51083;BME280;37131;42.694;23.350;2023-11-21T03:32:44;95353.00;;;1.53;100.00
51083;BME280;37131;42.694;23.350;2023-11-21T03:35:09;95351.59;;;1.42;100.00
51083;BME280;37131;42.694;23.350;2023-11-21T03:37:35;95354.91;;;1.59;100.00
51083;BME280;37131;42.694;23.350;2023-11-21T03:40:01;95361.81;;;1.58;100.00
51083;BME280;37131;42.694;23.350;2023-11-21T03:42:29;95353.94;;;1.60;100.00
51083;BME280;37131;42.694;23.350;2023-11-21T03:44:54;95354.28;;;1.57;100.00
51083;BME280;37131;42.694;23.350;2023-11-21T03:47:20;95310.22;;;1.20;100.00
51083;BME280;37131;42.694;23.350;2023-11-21T03:49:45;95343.84;;;1.50;100.00
51083;BME280;37131;42.694;23.350;2023-11-21T03:52:10;95336.13;;;1.58;100.00
51083;BME280;37131;42.694;23.350;2023-11-21T03:54:36;95322.16;;;1.53;100.00
51083;BME280;37131;42.694;23.350;2023-11-21T03:57:02;95332.88;;;1.73;100.00
51083;BME280;37131;42.694;23.350;2023-11-21T03:59:28;95329.47;;;1.81;100.00
51083;BME280;37131;42.694;23.350;2023-11-21T04:01:55;95274.09;;;1.22;100.00
51083;BME280;37131;42.694;23.350;2023-11-21T04:04:22;95337.41;;;1.63;100.00
51083;BME280;37131;42.694;23.350;2023-11-21T04:06:47;95327.13;;;1.54;100.00
51083;BME280;37131;42.694;23.350;2023-11-21T04:09:12;95327.75;;;1.56;100.00
51083;BME280;37131;42.694;23.350;2023-11-21T04:11:38;95321.06;;;1.47;100.00
51083;BME280;37131;42.694;23.350;2023-11-21T04:14:03;95334.72;;;1.48;100.00
51083;BME280;37131;42.694;23.350;2023-11-21T04:16:29;95328.16;;;1.37;100.00
51083;BME280;37131;42.694;23.350;2023-11-21T04:18:54;95323.38;;;1.17;100.00
51083;BME280;37131;42.694;23.350;2023-11-21T04:21:19;95294.84;;;0.96;100.00
51083;BME280;37131;42.694;23.350;2023-11-21T04:23:45;95321.59;;;1.26;100.00
51083;BME280;37131;42.694;23.350;2023-11-21T04:26:10;95325.78;;;1.27;100.00
51083;BME280;37131;42.694;23.350;2023-11-21T04:28:36;95324.78;;;1.28;100.00
51083;BME280;37131;42.694;23.350;2023-11-21T04:31:01;95319.69;;;1.12;100.00
51083;BME280;37131;42.694;23.350;2023-11-21T04:33:27;95336.72;;;1.13;100.00
51083;BME280;37131;42.694;23.350;2023-11-21T04:35:53;95328.50;;;1.17;100.00
51083;BME280;37131;42.694;23.350;2023-11-21T04:38:18;95317.16;;;1.03;100.00
51083;BME280;37131;42.694;23.350;2023-11-21T04:40:44;95330.47;;;1.15;100.00
51083;BME280;37131;42.694;23.350;2023-11-21T04:43:09;95334.97;;;1.05;100.00
51083;BME280;37131;42.694;23.350;2023-11-21T04:45:35;95334.97;;;1.05;100.00
51083;BME280;37131;42.694;23.350;2023-11-21T04:48:00;95326.09;;;1.08;100.00
51083;BME280;37131;42.694;23.350;2023-11-21T04:50:25;95301.09;;;0.77;100.00
51083;BME280;37131;42.694;23.350;2023-11-21T04:52:54;95309.28;;;0.88;100.00
51083;BME280;37131;42.694;23.350;2023-11-21T04:55:19;95341.34;;;1.09;100.00
51083;BME280;37131;42.694;23.350;2023-11-21T04:57:44;95340.72;;;0.99;100.00
51083;BME280;37131;42.694;23.350;2023-11-21T05:00:11;95327.59;;;0.94;100.00
51083;BME280;37131;42.694;23.350;2023-11-21T05:02:37;95340.09;;;1.05;100.00
51083;BME280;37131;42.694;23.350;2023-11-21T05:05:03;95335.44;;;1.17;100.00
51083;BME280;37131;42.694;23.350;2023-11-21T05:07:31;95337.84;;;1.18;100.00
51083;BME280;37131;42.694;23.350;2023-11-21T05:09:57;95340.41;;;1.18;100.00
51083;BME280;37131;42.694;23.350;2023-11-21T05:12:24;95344.56;;;1.11;100.00
51083;BME280;37131;42.694;23.350;2023-11-21T05:14:50;95328.69;;;1.16;100.00
51083;BME280;37131;42.694;23.350;2023-11-21T05:17:15;95331.25;;;1.16;100.00
51083;BME280;37131;42.694;23.350;2023-11-21T05:19:41;95296.63;;;1.03;100.00
51083;BME280;37131;42.694;23.350;2023-11-21T05:22:06;95334.44;;;1.26;100.00
51083;BME280;37131;42.694;23.350;2023-11-21T05:24:33;95318.88;;;1.28;100.00
51083;BME280;37131;42.694;23.350;2023-11-21T05:26:58;95321.75;;;1.25;100.00
51083;BME280;37131;42.694;23.350;2023-11-21T05:29:24;95333.63;;;1.34;100.00
51083;BME280;37131;42.694;23.350;2023-11-21T05:31:50;95335.22;;;1.35;100.00
51083;BME280;37131;42.694;23.350;2023-11-21T05:34:16;95342.47;;;1.23;100.00
51083;BME280;37131;42.694;23.350;2023-11-21T05:36:43;95343.22;;;1.40;100.00
51083;BME280;37131;42.694;23.350;2023-11-21T05:39:11;95339.38;;;1.44;100.00
51083;BME280;37131;42.694;23.350;2023-11-21T05:41:36;95341.47;;;1.40;100.00
51083;BME280;37131;42.694;23.350;2023-11-21T05:44:02;95342.44;;;1.39;100.00
51083;BME280;37131;42.694;23.350;2023-11-21T05:46:27;95346.75;;;1.47;100.00
51083;BME280;37131;42.694;23.350;2023-11-21T05:48:53;95349.81;;;1.43;100.00
51083;BME280;37131;42.694;23.350;2023-11-21T05:51:18;95351.56;;;1.50;100.00
51083;BME280;37131;42.694;23.350;2023-11-21T05:53:44;95335.56;;;1.32;100.00
51083;BME280;37131;42.694;23.350;2023-11-21T05:56:09;95340.66;;;1.48;100.00
51083;BME280;37131;42.694;23.350;2023-11-21T05:58:34;95328.97;;;1.29;100.00
51083;BME280;37131;42.694;23.350;2023-11-21T06:01:00;95341.00;;;1.37;100.00
51083;BME280;37131;42.694;23.350;2023-11-21T06:03:25;95336.84;;;1.36;100.00
51083;BME280;37131;42.694;23.350;2023-11-21T06:05:51;95346.63;;;1.32;100.00
51083;BME280;37131;42.694;23.350;2023-11-21T06:08:16;95343.44;;;1.22;100.00
51083;BME280;37131;42.694;23.350;2023-11-21T06:10:42;95346.50;;;1.26;100.00
51083;BME280;37131;42.694;23.350;2023-11-21T06:13:09;95349.53;;;1.37;100.00
51083;BME280;37131;42.694;23.350;2023-11-21T06:15:35;95351.94;;;1.31;100.00
51083;BME280;37131;42.694;23.350;2023-11-21T06:18:01;95359.13;;;1.35;100.00
51083;BME280;37131;42.694;23.350;2023-11-21T06:20:26;95350.31;;;1.38;100.00
51083;BME280;37131;42.694;23.350;2023-11-21T06:22:52;95355.13;;;1.49;100.00
51083;BME280;37131;42.694;23.350;2023-11-21T06:25:19;95360.22;;;1.57;100.00
51083;BME280;37131;42.694;23.350;2023-11-21T06:27:47;95331.09;;;1.26;100.00
51083;BME280;37131;42.694;23.350;2023-11-21T06:30:13;95365.56;;;1.39;100.00
51083;BME280;37131;42.694;23.350;2023-11-21T06:32:40;95336.97;;;1.34;100.00
51083;BME280;37131;42.694;23.350;2023-11-21T06:35:06;95358.28;;;1.60;100.00
51083;BME280;37131;42.694;23.350;2023-11-21T06:37:33;95369.19;;;1.62;100.00
51083;BME280;37131;42.694;23.350;2023-11-21T06:39:59;95368.56;;;1.60;100.00
51083;BME280;37131;42.694;23.350;2023-11-21T06:42:25;95366.28;;;1.73;100.00
51083;BME280;37131;42.694;23.350;2023-11-21T06:44:51;95366.75;;;1.77;100.00
51083;BME280;37131;42.694;23.350;2023-11-21T06:47:18;95376.41;;;1.74;100.00
51083;BME280;37131;42.694;23.350;2023-11-21T06:49:45;95374.28;;;1.86;100.00
51083;BME280;37131;42.694;23.350;2023-11-21T06:52:13;95365.25;;;1.90;100.00
51083;BME280;37131;42.694;23.350;2023-11-21T06:54:38;95365.91;;;1.84;100.00
51083;BME280;37131;42.694;23.350;2023-11-21T06:57:04;95374.72;;;1.90;100.00
51083;BME280;37131;42.694;23.350;2023-11-21T06:59:29;95363.00;;;1.87;100.00
51083;BME280;37131;42.694;23.350;2023-11-21T07:01:55;95354.75;;;2.00;100.00
51083;BME280;37131;42.694;23.350;2023-11-21T07:04:20;95363.00;;;2.27;100.00
51083;BME280;37131;42.694;23.350;2023-11-21T07:06:45;95368.09;;;2.35;100.00
51083;BME280;37131;42.694;23.350;2023-11-21T07:09:11;95367.88;;;2.45;100.00
51083;BME280;37131;42.694;23.350;2023-11-21T07:11:37;95367.25;;;2.43;100.00
51083;BME280;37131;42.694;23.350;2023-11-21T07:14:04;95356.34;;;2.41;100.00
51083;BME280;37131;42.694;23.350;2023-11-21T07:16:38;95357.03;;;2.58;100.00
51083;BME280;37131;42.694;23.350;2023-11-21T07:19:04;95353.22;;;2.69;100.00
51083;BME280;37131;42.694;23.350;2023-11-21T07:21:32;95357.75;;;2.90;100.00
51083;BME280;37131;42.694;23.350;2023-11-21T07:23:58;95353.00;;;3.02;100.00
51083;BME280;37131;42.694;23.350;2023-11-21T07:26:23;95354.66;;;3.32;100.00
51083;BME280;37131;42.694;23.350;2023-11-21T07:28:50;95355.78;;;3.15;100.00
51083;BME280;37131;42.694;23.350;2023-11-21T07:31:16;95360.94;;;3.15;100.00
51083;BME280;37131;42.694;23.350;2023-11-21T07:33:41;95365.22;;;3.38;100.00
51083;BME280;37131;42.694;23.350;2023-11-21T07:36:07;95359.22;;;3.60;100.00
51083;BME280;37131;42.694;23.350;2023-11-21T07:38:32;95360.38;;;3.43;100.00
51083;BME280;37131;42.694;23.350;2023-11-21T07:40:58;95358.75;;;3.57;100.00
51083;BME280;37131;42.694;23.350;2023-11-21T07:43:27;95347.31;;;3.59;100.00
51083;BME280;37131;42.694;23.350;2023-11-21T07:45:58;95352.72;;;3.64;100.00
51083;BME280;37131;42.694;23.350;2023-11-21T07:48:23;95352.09;;;3.47;100.00
51083;BME280;37131;42.694;23.350;2023-11-21T07:50:49;95349.97;;;3.51;100.00
51083;BME280;37131;42.694;23.350;2023-11-21T07:53:14;95333.09;;;3.63;100.00
51083;BME280;37131;42.694;23.350;2023-11-21T07:55:40;95345.50;;;3.75;100.00
51083;BME280;37131;42.694;23.350;2023-11-21T07:58:05;95350.66;;;3.75;100.00
51083;BME280;37131;42.694;23.350;2023-11-21T08:00:30;95351.91;;;3.94;100.00
51083;BME280;37131;42.694;23.350;2023-11-21T08:02:56;95331.44;;;3.92;100.00
51083;BME280;37131;42.694;23.350;2023-11-21T08:05:21;95335.13;;;4.34;100.00
51083;BME280;37131;42.694;23.350;2023-11-21T08:07:47;95330.25;;;4.10;100.00
51083;BME280;37131;42.694;23.350;2023-11-21T08:10:12;95330.50;;;4.15;100.00
51083;BME280;37131;42.694;23.350;2023-11-21T08:12:38;95325.75;;;4.33;100.00
51083;BME280;37131;42.694;23.350;2023-11-21T08:15:04;95322.06;;;4.43;100.00
51083;BME280;37131;42.694;23.350;2023-11-21T08:17:30;95328.84;;;4.44;100.00
51083;BME280;37131;42.694;23.350;2023-11-21T08:19:58;95335.47;;;4.31;100.00
51083;BME280;37131;42.694;23.350;2023-11-21T08:22:23;95332.72;;;4.54;100.00
51083;BME280;37131;42.694;23.350;2023-11-21T08:24:51;95329.50;;;4.96;100.00
51083;BME280;37131;42.694;23.350;2023-11-21T08:27:17;95330.34;;;4.74;100.00
51083;BME280;37131;42.694;23.350;2023-11-21T08:29:43;95331.91;;;4.54;100.00
51083;BME280;37131;42.694;23.350;2023-11-21T08:32:08;95308.56;;;4.41;100.00
51083;BME280;37131;42.694;23.350;2023-11-21T08:34:33;95329.78;;;4.79;100.00
51083;BME280;37131;42.694;23.350;2023-11-21T08:36:59;95338.25;;;4.95;100.00
51083;BME280;37131;42.694;23.350;2023-11-21T08:39:24;95320.22;;;5.01;100.00
51083;BME280;37131;42.694;23.350;2023-11-21T08:41:50;95322.97;;;5.28;100.00
51083;BME280;37131;42.694;23.350;2023-11-21T08:44:16;95310.72;;;5.08;100.00
51083;BME280;37131;42.694;23.350;2023-11-21T08:46:44;95319.94;;;5.18;100.00
51083;BME280;37131;42.694;23.350;2023-11-21T08:49:11;95310.13;;;5.06;100.00
51083;BME280;37131;42.694;23.350;2023-11-21T08:51:37;95319.41;;;5.29;100.00
51083;BME280;37131;42.694;23.350;2023-11-21T08:54:03;95320.81;;;5.60;100.00
51083;BME280;37131;42.694;23.350;2023-11-21T08:56:29;95304.91;;;5.70;100.00
51083;BME280;37131;42.694;23.350;2023-11-21T08:58:55;95287.22;;;5.32;100.00
51083;BME280;37131;42.694;23.350;2023-11-21T09:01:22;95291.59;;;5.66;100.00
51083;BME280;37131;42.694;23.350;2023-11-21T09:03:48;95296.81;;;5.73;100.00
51083;BME280;37131;42.694;23.350;2023-11-21T09:06:15;95285.47;;;5.80;100.00
51083;BME280;37131;42.694;23.350;2023-11-21T09:08:40;95293.34;;;5.59;100.00
51083;BME280;37131;42.694;23.350;2023-11-21T09:11:07;95239.78;;;5.53;100.00
51083;BME280;37131;42.694;23.350;2023-11-21T09:13:33;95250.19;;;5.24;100.00
51083;BME280;37131;42.694;23.350;2023-11-21T09:15:59;95260.38;;;5.33;100.00
51083;BME280;37131;42.694;23.350;2023-11-21T09:18:25;95259.19;;;5.29;100.00
51083;BME280;37131;42.694;23.350;2023-11-21T09:20:50;95246.38;;;5.55;100.00
51083;BME280;37131;42.694;23.350;2023-11-21T09:23:16;95234.09;;;5.71;100.00
51083;BME280;37131;42.694;23.350;2023-11-21T09:25:41;95215.00;;;5.78;100.00
51083;BME280;37131;42.694;23.350;2023-11-21T09:28:12;95241.09;;;5.84;100.00
51083;BME280;37131;42.694;23.350;2023-11-21T09:30:38;95225.97;;;5.80;100.00
51083;BME280;37131;42.694;23.350;2023-11-21T09:33:03;95214.81;;;5.73;100.00
51083;BME280;37131;42.694;23.350;2023-11-21T09:35:32;95203.84;;;5.71;100.00
51083;BME280;37131;42.694;23.350;2023-11-21T09:37:58;95199.78;;;5.49;100.00
51083;BME280;37131;42.694;23.350;2023-11-21T09:40:23;95191.16;;;5.83;100.00
51083;BME280;37131;42.694;23.350;2023-11-21T09:42:54;95192.41;;;6.01;100.00
51083;BME280;37131;42.694;23.350;2023-11-21T09:45:33;95189.97;;;5.92;100.00
51083;BME280;37131;42.694;23.350;2023-11-21T09:48:00;95186.09;;;6.23;100.00
51083;BME280;37131;42.694;23.350;2023-11-21T09:50:26;95179.13;;;6.44;98.92
51083;BME280;37131;42.694;23.350;2023-11-21T09:53:16;95174.53;;;6.46;99.62
51083;BME280;37131;42.694;23.350;2023-11-21T09:55:44;95149.00;;;6.56;99.11
51083;BME280;37131;42.694;23.350;2023-11-21T09:58:11;95151.78;;;6.81;99.01
51083;BME280;37131;42.694;23.350;2023-11-21T10:00:42;95147.72;;;7.12;97.59
51083;BME280;37131;42.694;23.350;2023-11-21T10:03:08;95113.06;;;7.00;96.83
51083;BME280;37131;42.694;23.350;2023-11-21T10:05:35;95142.59;;;7.44;96.77
51083;BME280;37131;42.694;23.350;2023-11-21T10:08:00;95135.53;;;7.13;94.81
51083;BME280;37131;42.694;23.350;2023-11-21T10:10:27;95146.78;;;7.45;95.03
51083;BME280;37131;42.694;23.350;2023-11-21T10:12:56;95143.13;;;7.60;93.77
51083;BME280;37131;42.694;23.350;2023-11-21T10:15:22;95134.38;;;7.54;92.61
51083;BME280;37131;42.694;23.350;2023-11-21T10:17:52;95137.53;;;7.04;93.93
51083;BME280;37131;42.694;23.350;2023-11-21T10:20:19;95127.53;;;7.14;95.99
51083;BME280;37131;42.694;23.350;2023-11-21T10:22:45;95127.31;;;7.23;93.63
51083;BME280;37131;42.694;23.350;2023-11-21T10:25:11;95116.38;;;7.14;93.21
51083;BME280;37131;42.694;23.350;2023-11-21T10:27:40;95115.47;;;7.40;91.76
51083;BME280;37131;42.694;23.350;2023-11-21T10:30:09;95109.13;;;7.36;93.08
51083;BME280;37131;42.694;23.350;2023-11-21T10:32:41;95105.94;;;7.72;91.86
51083;BME280;37131;42.694;23.350;2023-11-21T10:35:08;95100.50;;;8.06;89.13
51083;BME280;37131;42.694;23.350;2023-11-21T10:37:36;95092.47;;;7.82;87.70
51083;BME280;37131;42.694;23.350;2023-11-21T10:40:08;95094.19;;;7.95;88.29
51083;BME280;37131;42.694;23.350;2023-11-21T10:42:38;95084.28;;;8.36;87.60
51083;BME280;37131;42.694;23.350;2023-11-21T10:45:05;95082.91;;;8.58;84.06
51083;BME280;37131;42.694;23.350;2023-11-21T10:47:38;95082.59;;;8.48;82.89
51083;BME280;37131;42.694;23.350;2023-11-21T10:50:04;95072.03;;;8.43;81.72
51083;BME280;37131;42.694;23.350;2023-11-21T10:52:29;95079.00;;;8.49;81.22
51083;BME280;37131;42.694;23.350;2023-11-21T10:54:55;95077.34;;;8.55;82.07
51083;BME280;37131;42.694;23.350;2023-11-21T10:57:20;95072.84;;;8.62;82.60
51083;BME280;37131;42.694;23.350;2023-11-21T10:59:48;95067.16;;;8.72;82.07
51083;BME280;37131;42.694;23.350;2023-11-21T11:02:24;95062.34;;;8.75;82.11
51083;BME280;37131;42.694;23.350;2023-11-21T11:04:54;95053.53;;;8.58;81.90
51083;BME280;37131;42.694;23.350;2023-11-21T11:07:27;95061.41;;;8.70;79.83
51083;BME280;37131;42.694;23.350;2023-11-21T11:09:54;95062.56;;;8.30;79.75
51083;BME280;37131;42.694;23.350;2023-11-21T11:12:20;95054.63;;;8.43;80.33
51083;BME280;37131;42.694;23.350;2023-11-21T11:14:46;95038.28;;;8.18;81.48
51083;BME280;37131;42.694;23.350;2023-11-21T11:17:13;95052.25;;;8.42;81.26
51083;BME280;37131;42.694;23.350;2023-11-21T11:19:39;95041.84;;;8.67;79.16
51083;BME280;37131;42.694;23.350;2023-11-21T11:22:33;95034.75;;;8.74;79.38
51083;BME280;37131;42.694;23.350;2023-11-21T11:25:20;95026.88;;;8.81;79.24
51083;BME280;37131;42.694;23.350;2023-11-21T11:28:04;95024.81;;;9.02;77.61
51083;BME280;37131;42.694;23.350;2023-11-21T11:36:10;95005.50;;;8.79;78.98
51083;BME280;37131;42.694;23.350;2023-11-21T11:38:38;95002.81;;;8.86;78.56
51083;BME280;37131;42.694;23.350;2023-11-21T11:41:06;95020.59;;;8.89;76.95
51083;BME280;37131;42.694;23.350;2023-11-21T11:43:32;94992.06;;;8.82;77.45
51083;BME280;37131;42.694;23.350;2023-11-21T11:46:03;95002.75;;;8.74;78.65
51083;BME280;37131;42.694;23.350;2023-11-21T11:48:36;95015.47;;;8.82;80.63
51083;BME280;37131;42.694;23.350;2023-11-21T11:51:06;95030.19;;;9.07;79.12
51083;BME280;37131;42.694;23.350;2023-11-21T11:53:39;95036.09;;;9.14;78.36
51083;BME280;37131;42.694;23.350;2023-11-21T11:56:33;95034.94;;;8.91;80.08
51083;BME280;37131;42.694;23.350;2023-11-21T11:59:04;95025.09;;;8.82;81.72
51083;BME280;37131;42.694;23.350;2023-11-21T12:01:32;95024.09;;;9.13;83.13
51083;BME280;37131;42.694;23.350;2023-11-21T12:07:00;95020.81;;;8.87;84.17
51083;BME280;37131;42.694;23.350;2023-11-21T12:09:31;95021.88;;;8.80;88.00
51083;BME280;37131;42.694;23.350;2023-11-21T12:11:56;95020.59;;;8.89;88.91
51083;BME280;37131;42.694;23.350;2023-11-21T12:14:22;95013.88;;;8.81;91.61
51083;BME280;37131;42.694;23.350;2023-11-21T12:16:48;95018.28;;;8.62;96.59
51083;BME280;37131;42.694;23.350;2023-11-21T12:19:14;95018.00;;;8.70;99.70
51083;BME280;37131;42.694;23.350;2023-11-21T12:21:40;95022.41;;;8.51;100.00
51083;BME280;37131;42.694;23.350;2023-11-21T12:24:14;95021.47;;;8.20;100.00
51083;BME280;37131;42.694;23.350;2023-11-21T12:26:43;94970.25;;;8.09;100.00
51083;BME280;37131;42.694;23.350;2023-11-21T12:29:09;94968.41;;;7.91;100.00
51083;BME280;37131;42.694;23.350;2023-11-21T12:31:35;95011.84;;;8.02;100.00
51083;BME280;37131;42.694;23.350;2023-11-21T12:34:01;94998.34;;;7.94;100.00
51083;BME280;37131;42.694;23.350;2023-11-21T12:36:26;95025.38;;;8.11;100.00
51083;BME280;37131;42.694;23.350;2023-11-21T12:38:54;95027.09;;;7.99;100.00
51083;BME280;37131;42.694;23.350;2023-11-21T12:41:19;95025.19;;;8.06;100.00
51083;BME280;37131;42.694;23.350;2023-11-21T12:43:46;95013.34;;;7.92;100.00
51083;BME280;37131;42.694;23.350;2023-11-21T12:46:13;95011.34;;;7.94;100.00
51083;BME280;37131;42.694;23.350;2023-11-21T12:48:41;95004.44;;;7.55;100.00
51083;BME280;37131;42.694;23.350;2023-11-21T12:51:10;94978.00;;;7.40;100.00
51083;BME280;37131;42.694;23.350;2023-11-21T12:53:44;94989.41;;;7.64;100.00
51083;BME280;37131;42.694;23.350;2023-11-21T12:56:13;94983.88;;;7.54;100.00
51083;BME280;37131;42.694;23.350;2023-11-21T12:58:44;94980.72;;;7.52;100.00